createdAt,value
2019-04-10T00:00:45.846Z,53.50
2019-04-10T00:01:44.717Z,54.10
2019-04-10T00:02:44.606Z,55.80
2019-04-10T00:03:44.518Z,56.40
2019-04-10T00:04:45.295Z,55.20
2019-04-10T00:05:44.556Z,56.40
2019-04-10T00:06:44.207Z,56.20
2019-04-10T00:07:44.109Z,55.60
2019-04-10T00:08:44.227Z,56.00
2019-04-10T00:09:43.910Z,56.20
2019-04-10T00:10:43.904Z,58.20
2019-04-10T00:11:43.812Z,55.60
2019-04-10T00:12:43.610Z,57.50
2019-04-10T00:13:43.513Z,57.90
2019-04-10T00:14:43.416Z,56.50
2019-04-10T00:15:43.463Z,54.40
2019-04-10T00:16:43.212Z,54.40
2019-04-10T00:17:43.244Z,53.70
2019-04-10T00:18:43.013Z,54.20
2019-04-10T00:19:43.644Z,53.30
2019-04-10T00:20:42.831Z,52.60
2019-04-10T00:21:42.715Z,52.90
2019-04-10T00:22:42.616Z,53.40
2019-04-10T00:23:43.589Z,53.10
2019-04-10T00:24:42.448Z,53.60
2019-04-10T00:25:43.396Z,53.60
2019-04-10T00:26:42.214Z,52.80
2019-04-10T00:27:43.030Z,52.50
2019-04-10T00:28:42.018Z,53.50
2019-04-10T00:29:42.509Z,53.30
2019-04-10T00:30:42.760Z,52.10
2019-04-10T00:31:42.278Z,51.50
2019-04-10T00:32:41.616Z,51.80
2019-04-10T00:33:41.516Z,51.30
2019-04-10T00:34:42.057Z,52.90
2019-04-10T00:35:41.519Z,53.20
2019-04-10T00:36:41.546Z,52.80
2019-04-10T00:37:41.121Z,50.70
2019-04-10T00:38:41.876Z,51.10
2019-04-10T00:39:40.919Z,53.90
2019-04-10T00:40:41.589Z,53.20
2019-04-10T00:41:40.758Z,50.60
2019-04-10T00:42:41.148Z,48.90
2019-04-10T00:43:41.445Z,50.30
2019-04-10T00:44:40.423Z,53.10
2019-04-10T00:45:40.342Z,54.00
2019-04-10T00:46:40.220Z,55.10
2019-04-10T00:47:40.119Z,56.70
2019-04-10T00:48:40.022Z,55.90
2019-04-10T00:49:40.035Z,55.60
2019-04-10T00:50:39.835Z,55.90
2019-04-10T00:51:39.724Z,56.40
2019-04-10T00:52:40.642Z,54.90
2019-04-10T00:53:39.521Z,54.90
2019-04-10T00:54:39.424Z,56.20
2019-04-10T00:55:39.782Z,56.40
2019-04-10T00:56:39.236Z,57.80
2019-04-10T00:57:39.356Z,56.60
2019-04-10T00:58:39.550Z,57.10
2019-04-10T00:59:39.831Z,54.40
2019-04-10T01:00:39.220Z,55.40
2019-04-10T01:01:38.757Z,55.90
2019-04-10T01:02:38.772Z,60.20
2019-04-10T01:03:38.520Z,60.10
2019-04-10T01:04:38.422Z,54.40
2019-04-10T01:05:38.322Z,53.90
2019-04-10T01:06:38.237Z,54.30
2019-04-10T01:07:41.166Z,58.40
2019-04-10T01:08:38.022Z,58.40
2019-04-10T01:09:37.921Z,57.80
2019-04-10T01:10:38.764Z,58.00
2019-04-10T01:11:37.736Z,60.70
2019-04-10T01:12:38.373Z,62.20
2019-04-10T01:13:37.516Z,58.80
2019-04-10T01:14:38.043Z,59.60
2019-04-10T01:15:38.502Z,59.80
2019-04-10T01:16:37.714Z,61.70
2019-04-10T01:17:38.139Z,61.10
2019-04-10T01:18:37.412Z,58.20
2019-04-10T01:19:36.917Z,59.80
2019-04-10T01:20:37.767Z,58.90
2019-04-10T01:21:36.840Z,60.80
2019-04-10T01:22:36.617Z,61.40
2019-04-10T01:23:37.895Z,61.70
2019-04-10T01:24:37.552Z,60.50
2019-04-10T01:25:36.789Z,59.50
2019-04-10T01:26:37.089Z,59.90
2019-04-10T01:27:36.194Z,58.70
2019-04-10T01:28:36.675Z,57.70
2019-04-10T01:29:35.919Z,57.70
2019-04-10T01:30:35.815Z,57.90
2019-04-10T01:31:35.730Z,58.00
2019-04-10T01:32:36.334Z,57.70
2019-04-10T01:33:35.513Z,57.80
2019-04-10T01:34:35.744Z,58.60
2019-04-10T01:35:35.335Z,58.80
2019-04-10T01:36:35.376Z,61.40
2019-04-10T01:37:47.693Z,63.80
2019-04-10T01:38:35.594Z,59.70
2019-04-10T01:39:34.914Z,62.00
2019-04-10T01:40:35.163Z,58.30
2019-04-10T01:41:34.829Z,59.20
2019-04-10T01:42:34.656Z,59.60
2019-04-10T01:43:35.108Z,62.40
2019-04-10T01:44:34.411Z,64.80
2019-04-10T01:45:34.310Z,64.70
2019-04-10T01:46:35.823Z,65.10
2019-04-10T01:47:35.003Z,68.60
2019-04-10T01:48:34.535Z,64.90
2019-04-10T01:49:33.911Z,66.80
2019-04-10T01:50:34.742Z,68.20
2019-04-10T01:51:33.727Z,66.20
2019-04-10T01:52:33.624Z,66.50
2019-04-10T01:53:33.593Z,60.90
2019-04-10T01:54:33.415Z,59.90
2019-04-10T01:55:34.270Z,59.10
2019-04-10T01:56:35.117Z,58.60
2019-04-10T01:57:33.110Z,60.90
2019-04-10T01:58:33.009Z,59.00
2019-04-10T01:59:34.014Z,61.30
2019-04-10T02:00:32.812Z,59.30
2019-04-10T02:01:32.723Z,61.60
2019-04-10T02:02:33.549Z,59.30
2019-04-10T02:03:32.511Z,60.10
2019-04-10T02:04:33.142Z,63.60
2019-04-10T02:05:32.500Z,64.10
2019-04-10T02:06:32.224Z,64.50
2019-04-10T02:07:32.109Z,66.50
2019-04-10T02:08:32.004Z,68.20
2019-04-10T02:09:32.006Z,69.20
2019-04-10T02:10:32.105Z,67.60
2019-04-10T02:11:32.277Z,65.00
2019-04-10T02:12:31.606Z,67.30
2019-04-10T02:13:31.675Z,67.30
2019-04-10T02:14:32.118Z,67.40
2019-04-10T02:15:32.216Z,66.00
2019-04-10T02:16:31.326Z,70.50
2019-04-10T02:17:31.103Z,66.20
2019-04-10T02:18:31.005Z,69.80
2019-04-10T02:19:30.909Z,69.50
2019-04-10T02:20:31.325Z,69.00
2019-04-10T02:21:31.745Z,64.80
2019-04-10T02:22:30.853Z,62.60
2019-04-10T02:23:30.607Z,63.20
2019-04-10T02:24:31.326Z,61.50
2019-04-10T02:25:30.629Z,61.20
2019-04-10T02:26:30.217Z,61.80
2019-04-10T02:27:30.188Z,63.10
2019-04-10T02:28:30.961Z,61.90
2019-04-10T02:29:29.899Z,61.70
2019-04-10T02:30:30.352Z,62.90
2019-04-10T02:31:30.626Z,60.90
2019-04-10T02:32:29.601Z,57.70
2019-04-10T02:33:29.498Z,58.70
2019-04-10T02:34:30.692Z,58.70
2019-04-10T02:35:29.770Z,54.40
2019-04-10T02:36:31.364Z,57.70
2019-04-10T02:37:29.198Z,59.30
2019-04-10T02:38:47.835Z,59.20
2019-04-10T02:39:36.156Z,59.30
2019-04-10T02:40:28.964Z,60.10
2019-04-10T02:41:29.887Z,60.60
2019-04-10T02:42:30.089Z,97.80
2019-04-10T02:43:29.253Z,72.20
2019-04-10T02:44:30.462Z,67.50
2019-04-10T02:45:28.299Z,69.20
2019-04-10T02:46:29.280Z,66.20
2019-04-10T02:47:28.381Z,64.90
2019-04-10T02:48:29.549Z,66.10
2019-04-10T02:49:28.071Z,65.70
2019-04-10T02:50:29.280Z,68.30
2019-04-10T02:51:27.700Z,71.90
2019-04-10T02:52:28.422Z,72.80
2019-04-10T02:53:27.686Z,74.70
2019-04-10T02:54:28.942Z,74.20
2019-04-10T02:55:27.382Z,76.60
2019-04-10T02:56:28.488Z,77.70
2019-04-10T02:57:27.610Z,74.60
2019-04-10T02:58:26.993Z,72.00
2019-04-10T02:59:27.132Z,72.70
2019-04-10T03:00:28.173Z,71.90
2019-04-10T03:01:27.282Z,71.00
2019-04-10T03:02:26.847Z,87.40
2019-04-10T03:03:27.621Z,89.80
2019-04-10T03:04:26.717Z,94.50
2019-04-10T03:05:27.357Z,100.70
2019-04-10T03:06:27.253Z,141.10
2019-04-10T03:07:26.099Z,117.30
2019-04-10T03:08:41.009Z,112.70
2019-04-10T03:09:41.856Z,253.00
2019-04-10T03:10:35.968Z,396.50
2019-04-10T03:11:26.472Z,368.10
2019-04-10T03:12:25.726Z,411.60
2019-04-10T03:13:26.850Z,299.70
2019-04-10T03:14:26.430Z,397.70
2019-04-10T03:15:25.364Z,390.40
2019-04-10T03:16:25.174Z,255.60
2019-04-10T03:17:25.989Z,226.90
2019-04-10T03:18:25.150Z,322.30
2019-04-10T03:19:25.495Z,282.30
2019-04-10T03:20:24.771Z,323.20
2019-04-10T03:21:24.671Z,400.90
2019-04-10T03:22:24.947Z,236.00
2019-04-10T03:23:25.203Z,235.80
2019-04-10T03:24:25.270Z,375.90
2019-04-10T03:25:24.656Z,428.20
2019-04-10T03:26:24.167Z,363.20
2019-04-10T03:27:24.083Z,415.00
2019-04-10T03:28:24.943Z,346.10
2019-04-10T03:29:24.080Z,184.10
2019-04-10T03:30:23.906Z,161.60
2019-04-10T03:31:25.277Z,155.90
2019-04-10T03:32:27.880Z,143.30
2019-04-10T03:33:28.907Z,137.80
2019-04-10T03:34:25.609Z,143.10
2019-04-10T03:35:23.257Z,132.90
2019-04-10T03:36:23.271Z,126.20
2019-04-10T03:37:23.069Z,122.30
2019-04-10T03:38:23.726Z,125.00
2019-04-10T03:39:23.698Z,128.40
2019-04-10T03:40:23.698Z,131.90
2019-04-10T03:41:22.652Z,134.00
2019-04-10T03:42:23.199Z,135.10
2019-04-10T03:43:22.561Z,115.70
2019-04-10T03:44:22.835Z,109.40
2019-04-10T03:45:22.432Z,112.90
2019-04-10T03:46:22.154Z,118.50
2019-04-10T03:47:22.936Z,111.30
2019-04-10T03:48:22.966Z,110.80
2019-04-10T03:49:22.126Z,96.60
2019-04-10T03:50:21.739Z,100.00
2019-04-10T03:51:22.753Z,94.10
2019-04-10T03:52:21.549Z,91.40
2019-04-10T03:53:22.303Z,95.00
2019-04-10T03:54:21.329Z,95.40
2019-04-10T03:55:21.230Z,90.20
2019-04-10T03:56:21.362Z,89.40
2019-04-10T03:57:21.047Z,86.40
2019-04-10T03:58:20.926Z,84.60
2019-04-10T03:59:20.826Z,87.60
2019-04-10T04:00:21.066Z,87.60
2019-04-10T04:01:20.832Z,93.10
2019-04-10T04:02:20.535Z,97.60
2019-04-10T04:03:20.518Z,96.80
2019-04-10T04:04:20.315Z,92.10
2019-04-10T04:05:20.370Z,95.90
2019-04-10T04:06:20.113Z,98.00
2019-04-10T04:07:20.997Z,90.70
2019-04-10T04:08:19.909Z,87.50
2019-04-10T04:09:20.108Z,86.60
2019-04-10T04:10:20.491Z,87.60
2019-04-10T04:11:19.731Z,82.70
2019-04-10T04:12:20.238Z,85.30
2019-04-10T04:13:19.575Z,93.30
2019-04-10T04:14:19.969Z,88.80
2019-04-10T04:15:19.885Z,92.40
2019-04-10T04:16:19.237Z,97.60
2019-04-10T04:17:19.991Z,92.30
2019-04-10T04:18:19.278Z,94.40
2019-04-10T04:19:18.792Z,95.90
2019-04-10T04:20:19.104Z,89.50
2019-04-10T04:21:19.520Z,90.00
2019-04-10T04:22:18.817Z,83.00
2019-04-10T04:23:19.319Z,76.70
2019-04-10T04:24:21.142Z,77.20
2019-04-10T04:25:18.187Z,81.90
2019-04-10T04:26:19.067Z,73.00
2019-04-10T04:27:18.918Z,70.90
2019-04-10T04:28:18.838Z,72.90
2019-04-10T04:29:18.483Z,74.60
2019-04-10T04:30:17.681Z,74.10
2019-04-10T04:31:18.082Z,69.40
2019-04-10T04:32:17.697Z,67.50
2019-04-10T04:33:17.405Z,69.00
2019-04-10T04:34:17.270Z,68.60
2019-04-10T04:35:17.581Z,69.70
2019-04-10T04:36:18.040Z,72.40
2019-04-10T04:37:16.983Z,74.00
2019-04-10T04:38:17.795Z,68.30
2019-04-10T04:39:24.030Z,68.40
2019-04-10T04:40:17.430Z,69.50
2019-04-10T04:41:17.409Z,67.20
2019-04-10T04:42:17.025Z,66.80
2019-04-10T04:43:16.700Z,73.30
2019-04-10T04:44:16.251Z,74.60
2019-04-10T04:45:17.282Z,72.30
2019-04-10T04:46:16.219Z,65.70
2019-04-10T04:47:15.948Z,65.90
2019-04-10T04:48:16.935Z,67.20
2019-04-10T04:49:15.768Z,66.90
2019-04-10T04:50:15.749Z,68.80
2019-04-10T04:51:15.539Z,71.30
2019-04-10T04:52:16.250Z,72.40
2019-04-10T04:53:16.322Z,70.90
2019-04-10T04:54:15.234Z,66.10
2019-04-10T04:55:15.132Z,65.20
2019-04-10T04:56:15.749Z,67.50
2019-04-10T04:57:15.038Z,66.00
2019-04-10T04:58:14.894Z,63.00
2019-04-10T04:59:14.725Z,62.90
2019-04-10T05:00:15.246Z,61.50
2019-04-10T05:01:14.741Z,61.00
2019-04-10T05:02:14.441Z,59.90
2019-04-10T05:03:14.336Z,60.70
2019-04-10T05:04:15.186Z,60.60
2019-04-10T05:05:14.312Z,61.80
2019-04-10T05:06:14.016Z,60.60
2019-04-10T05:07:14.832Z,58.80
2019-04-10T05:08:13.826Z,58.30
2019-04-10T05:09:25.995Z,57.10
2019-04-10T05:10:13.623Z,58.80
2019-04-10T05:11:13.884Z,58.40
2019-04-10T05:12:13.460Z,59.40
2019-04-10T05:13:13.674Z,60.50
2019-04-10T05:14:13.250Z,58.40
2019-04-10T05:15:13.099Z,58.60
2019-04-10T05:16:13.000Z,59.20
2019-04-10T05:17:15.066Z,59.10
2019-04-10T05:18:12.810Z,57.60
2019-04-10T05:19:12.690Z,57.60
2019-04-10T05:20:12.589Z,56.30
2019-04-10T05:21:12.744Z,56.30
2019-04-10T05:22:12.387Z,55.10
2019-04-10T05:23:12.300Z,53.10
2019-04-10T05:24:12.184Z,51.40
2019-04-10T05:25:13.172Z,50.50
2019-04-10T05:26:11.984Z,49.60
2019-04-10T05:27:11.949Z,50.80
2019-04-10T05:28:11.801Z,50.20
2019-04-10T05:29:11.688Z,51.10
2019-04-10T05:30:11.574Z,48.40
2019-04-10T05:31:11.474Z,45.10
2019-04-10T05:32:11.479Z,44.50
2019-04-10T05:33:11.994Z,44.90
2019-04-10T05:34:11.455Z,43.10
2019-04-10T05:35:11.591Z,42.10
2019-04-10T05:36:11.213Z,42.30
2019-04-10T05:37:11.458Z,41.40
2019-04-10T05:38:10.792Z,40.20
2019-04-10T05:39:10.675Z,39.80
2019-04-10T05:40:10.567Z,41.90
2019-04-10T05:41:10.467Z,44.20
2019-04-10T05:42:10.622Z,43.30
2019-04-10T05:43:11.408Z,44.10
2019-04-10T05:44:10.163Z,47.70
2019-04-10T05:45:10.071Z,49.00
2019-04-10T05:46:09.963Z,47.80
2019-04-10T05:47:10.347Z,43.60
2019-04-10T05:48:10.978Z,40.50
2019-04-10T05:49:10.748Z,38.40
2019-04-10T05:50:10.769Z,39.00
2019-04-10T05:51:09.558Z,38.00
2019-04-10T05:52:10.196Z,39.70
2019-04-10T05:53:09.824Z,38.80
2019-04-10T05:54:09.164Z,38.70
2019-04-10T05:55:09.063Z,38.80
2019-04-10T05:56:09.860Z,38.20
2019-04-10T05:57:08.860Z,37.10
2019-04-10T05:58:09.228Z,35.70
2019-04-10T05:59:10.804Z,36.40
2019-04-10T06:00:08.566Z,36.50
2019-04-10T06:01:09.390Z,36.00
2019-04-10T06:02:09.338Z,36.30
2019-04-10T06:03:08.284Z,36.10
2019-04-10T06:04:09.207Z,36.20
2019-04-10T06:05:08.068Z,34.80
2019-04-10T06:06:08.345Z,34.90
2019-04-10T06:07:08.577Z,35.10
2019-04-10T06:08:07.894Z,35.10
2019-04-10T06:09:08.657Z,34.60
2019-04-10T06:10:10.270Z,35.30
2019-04-10T06:11:08.600Z,35.60
2019-04-10T06:12:07.363Z,36.40
2019-04-10T06:13:07.287Z,34.60
2019-04-10T06:14:08.152Z,35.00
2019-04-10T06:15:07.066Z,36.90
2019-04-10T06:16:07.713Z,34.70
2019-04-10T06:17:07.949Z,36.00
2019-04-10T06:18:07.102Z,34.70
2019-04-10T06:19:07.326Z,32.40
2019-04-10T06:20:07.120Z,30.80
2019-04-10T06:21:07.095Z,30.50
2019-04-10T06:22:09.192Z,27.20
2019-04-10T06:23:07.335Z,27.70
2019-04-10T06:24:06.200Z,27.00
2019-04-10T06:25:08.333Z,27.20
2019-04-10T06:26:06.864Z,27.00
2019-04-10T06:27:06.003Z,28.10
2019-04-10T06:28:05.773Z,27.30
2019-04-10T06:29:06.512Z,26.70
2019-04-10T06:30:05.734Z,26.40
2019-04-10T06:31:06.213Z,27.00
2019-04-10T06:32:05.412Z,26.90
2019-04-10T06:33:05.283Z,27.90
2019-04-10T06:34:05.304Z,28.70
2019-04-10T06:35:05.770Z,29.50
2019-04-10T06:36:05.026Z,28.90
2019-04-10T06:37:06.038Z,28.60
2019-04-10T06:38:04.794Z,29.20
2019-04-10T06:39:04.733Z,29.00
2019-04-10T06:40:13.039Z,29.00
2019-04-10T06:41:04.609Z,27.90
2019-04-10T06:42:04.550Z,28.90
2019-04-10T06:43:04.456Z,28.90
2019-04-10T06:44:04.222Z,28.70
2019-04-10T06:45:05.715Z,29.80
2019-04-10T06:46:04.320Z,29.10
2019-04-10T06:47:04.231Z,29.20
2019-04-10T06:48:03.927Z,29.20
2019-04-10T06:49:05.418Z,27.90
2019-04-10T06:50:04.338Z,28.00
2019-04-10T06:51:04.002Z,27.60
2019-04-10T06:52:03.429Z,28.80
2019-04-10T06:53:04.137Z,28.70
2019-04-10T06:54:08.102Z,28.90
2019-04-10T06:55:03.239Z,28.30
2019-04-10T06:56:03.048Z,28.50
2019-04-10T06:57:02.941Z,28.40
2019-04-10T06:58:02.868Z,27.70
2019-04-10T06:59:02.785Z,28.00
2019-04-10T07:00:02.651Z,26.90
2019-04-10T07:01:02.555Z,27.70
2019-04-10T07:02:13.112Z,27.60
2019-04-10T07:03:03.098Z,28.10
2019-04-10T07:04:06.985Z,26.90
2019-04-10T07:05:05.754Z,25.60
2019-04-10T07:06:09.644Z,26.10
2019-04-10T07:07:08.839Z,25.30
2019-04-10T07:08:10.983Z,25.80
2019-04-10T07:09:01.927Z,25.80
2019-04-10T07:10:02.332Z,25.20
2019-04-10T07:11:06.824Z,26.00
2019-04-10T07:12:03.025Z,24.40
2019-04-10T07:13:04.287Z,24.70
2019-04-10T07:14:01.595Z,24.70
2019-04-10T07:15:02.329Z,24.90
2019-04-10T07:16:02.061Z,24.70
2019-04-10T07:17:05.315Z,24.20
2019-04-10T07:18:01.027Z,24.00
2019-04-10T07:19:04.269Z,24.20
2019-04-10T07:20:01.852Z,24.80
2019-04-10T07:21:01.678Z,24.20
2019-04-10T07:22:01.868Z,24.10
2019-04-10T07:23:00.544Z,24.90
2019-04-10T07:24:04.999Z,24.40
2019-04-10T07:25:00.550Z,24.60
2019-04-10T07:26:00.168Z,25.30
2019-04-10T07:27:03.289Z,24.90
2019-04-10T07:28:01.171Z,25.40
2019-04-10T07:29:00.549Z,24.00
2019-04-10T07:29:59.865Z,25.00
2019-04-10T07:31:05.002Z,24.70
2019-04-10T07:32:00.461Z,24.70
2019-04-10T07:32:59.500Z,24.90
2019-04-10T07:33:59.977Z,25.60
2019-04-10T07:35:01.125Z,24.70
2019-04-10T07:35:59.295Z,26.40
2019-04-10T07:37:00.124Z,26.10
2019-04-10T07:37:59.680Z,26.60
2019-04-10T07:38:59.223Z,25.80
2019-04-10T07:40:02.619Z,26.70
2019-04-10T07:40:58.913Z,26.20
2019-04-10T07:41:58.654Z,26.10
2019-04-10T07:42:58.772Z,26.90
2019-04-10T07:43:58.755Z,26.20
2019-04-10T07:44:58.392Z,26.40
2019-04-10T07:45:58.280Z,26.50
2019-04-10T07:46:59.718Z,26.70
2019-04-10T07:47:58.159Z,25.80
2019-04-10T07:48:58.606Z,25.30
2019-04-10T07:50:00.786Z,24.90
2019-04-10T07:50:57.812Z,25.50
2019-04-10T07:51:58.656Z,25.30
2019-04-10T07:52:57.661Z,25.20
2019-04-10T07:53:57.754Z,25.10
2019-04-10T07:54:58.653Z,25.30
2019-04-10T07:56:05.359Z,24.30
2019-04-10T07:56:57.892Z,25.00
2019-04-10T07:57:57.260Z,24.80
2019-04-10T07:58:57.065Z,24.70
2019-04-10T07:59:56.983Z,23.50
2019-04-10T08:00:56.872Z,24.50
2019-04-10T08:01:57.776Z,23.90
2019-04-10T08:02:57.495Z,24.30
2019-04-10T08:03:57.580Z,24.80
2019-04-10T08:04:56.517Z,26.30
2019-04-10T08:05:56.416Z,26.30
2019-04-10T08:06:56.323Z,27.10
2019-04-10T08:07:57.419Z,26.30
2019-04-10T08:08:56.133Z,26.10
2019-04-10T08:09:56.059Z,24.60
2019-04-10T08:10:55.957Z,26.00
2019-04-10T08:11:56.732Z,26.00
2019-04-10T08:12:56.021Z,24.40
2019-04-10T08:13:56.140Z,23.90
2019-04-10T08:14:56.166Z,26.20
2019-04-10T08:15:56.347Z,25.20
2019-04-10T08:16:55.398Z,25.80
2019-04-10T08:17:56.107Z,26.20
2019-04-10T08:18:56.215Z,26.10
2019-04-10T08:19:55.200Z,26.30
2019-04-10T08:20:55.212Z,26.00
2019-04-10T08:21:54.941Z,27.30
2019-04-10T08:22:55.329Z,26.30
2019-04-10T08:23:54.912Z,26.50
2019-04-10T08:24:54.824Z,26.20
2019-04-10T08:25:54.596Z,26.30
2019-04-10T08:26:54.835Z,27.20
2019-04-10T08:27:54.385Z,26.60
2019-04-10T08:28:54.296Z,25.70
2019-04-10T08:29:54.785Z,26.40
2019-04-10T08:30:54.649Z,26.20
2019-04-10T08:31:54.022Z,26.70
2019-04-10T08:33:00.846Z,25.70
2019-04-10T08:33:54.740Z,25.60
2019-04-10T08:34:53.745Z,26.20
2019-04-10T08:35:54.717Z,26.60
2019-04-10T08:36:55.045Z,28.20
2019-04-10T08:37:53.510Z,27.10
2019-04-10T08:38:53.380Z,26.40
2019-04-10T08:39:53.290Z,26.20
2019-04-10T08:40:54.390Z,26.70
2019-04-10T08:41:53.106Z,26.90
2019-04-10T08:42:53.018Z,26.70
2019-04-10T08:43:52.926Z,26.30
2019-04-10T08:44:52.836Z,27.90
2019-04-10T08:45:53.761Z,28.00
2019-04-10T08:46:52.668Z,27.60
2019-04-10T08:47:52.923Z,27.60
2019-04-10T08:48:52.471Z,27.80
2019-04-10T08:49:52.871Z,26.80
2019-04-10T08:50:52.500Z,27.80
2019-04-10T08:51:52.215Z,27.10
2019-04-10T08:52:52.210Z,27.70
2019-04-10T08:53:54.211Z,27.80
2019-04-10T08:54:51.924Z,27.30
2019-04-10T08:55:52.614Z,26.90
2019-04-10T08:56:52.608Z,27.50
2019-04-10T08:57:52.426Z,27.40
2019-04-10T08:58:51.776Z,26.40
2019-04-10T08:59:52.049Z,27.50
2019-04-10T09:00:52.726Z,27.80
2019-04-10T09:01:51.529Z,27.30
2019-04-10T09:02:51.200Z,28.00
2019-04-10T09:03:51.111Z,26.40
2019-04-10T09:04:51.086Z,26.50
2019-04-10T09:05:51.146Z,27.20
2019-04-10T09:06:51.545Z,26.40
2019-04-10T09:07:50.751Z,26.90
2019-04-10T09:08:50.930Z,26.10
2019-04-10T09:09:50.565Z,27.20
2019-04-10T09:10:50.524Z,26.70
2019-04-10T09:11:51.383Z,27.50
2019-04-10T09:12:51.181Z,27.10
2019-04-10T09:13:50.311Z,26.90
2019-04-10T09:14:50.113Z,26.80
2019-04-10T09:15:50.047Z,25.70
2019-04-10T09:16:51.003Z,26.60
2019-04-10T09:17:49.878Z,26.30
2019-04-10T09:18:49.750Z,26.90
2019-04-10T09:19:49.864Z,26.80
2019-04-10T09:20:49.698Z,26.70
2019-04-10T09:21:49.901Z,26.60
2019-04-10T09:23:10.366Z,26.50
2019-04-10T09:23:52.822Z,26.00
2019-04-10T09:24:49.210Z,26.00
2019-04-10T09:25:49.221Z,26.10
2019-04-10T09:26:49.034Z,26.00
2019-04-10T09:27:49.697Z,25.60
2019-04-10T09:28:48.862Z,26.00
2019-04-10T09:29:48.763Z,24.90
2019-04-10T09:30:49.059Z,26.50
2019-04-10T09:31:48.593Z,26.30
2019-04-10T09:32:48.581Z,25.60
2019-04-10T09:33:49.460Z,26.30
2019-04-10T09:34:48.315Z,25.50
2019-04-10T09:35:48.867Z,26.10
2019-04-10T09:36:49.195Z,25.90
2019-04-10T09:37:48.340Z,26.30
2019-04-10T09:38:47.961Z,26.50
2019-04-10T09:39:50.609Z,25.40
2019-04-10T09:40:48.760Z,25.90
2019-04-10T09:41:47.694Z,26.50
2019-04-10T09:42:47.993Z,26.40
2019-04-10T09:43:47.743Z,26.80
2019-04-10T09:44:48.513Z,26.00
2019-04-10T09:45:48.026Z,26.70
2019-04-10T09:46:47.336Z,26.00
2019-04-10T09:47:48.075Z,25.90
2019-04-10T09:48:47.686Z,26.20
2019-04-10T09:49:47.215Z,27.00
2019-04-10T09:50:48.057Z,26.60
2019-04-10T09:51:48.059Z,25.50
2019-04-10T09:52:46.719Z,25.90
2019-04-10T09:53:46.627Z,25.80
2019-04-10T09:54:46.795Z,25.00
2019-04-10T09:55:46.934Z,24.20
2019-04-10T09:56:46.416Z,24.40
2019-04-10T09:57:46.272Z,24.40
2019-04-10T09:58:46.813Z,25.30
2019-04-10T09:59:47.136Z,25.00
2019-04-10T10:00:46.021Z,23.90
2019-04-10T10:01:46.452Z,24.80
2019-04-10T10:02:45.827Z,24.10
2019-04-10T10:03:45.740Z,24.10
2019-04-10T10:04:45.996Z,24.00
2019-04-10T10:05:46.634Z,24.40
2019-04-10T10:06:45.472Z,24.10
2019-04-10T10:07:45.383Z,23.50
2019-04-10T10:08:45.301Z,24.10
2019-04-10T10:09:45.218Z,23.10
2019-04-10T10:10:45.121Z,23.80
2019-04-10T10:11:45.045Z,23.70
2019-04-10T10:12:45.034Z,24.00
2019-04-10T10:13:45.806Z,22.70
2019-04-10T10:14:44.767Z,24.40
2019-04-10T10:15:45.242Z,23.10
2019-04-10T10:16:44.603Z,23.50
2019-04-10T10:17:44.602Z,23.20
2019-04-10T10:18:45.643Z,24.00
2019-04-10T10:19:44.321Z,23.60
2019-04-10T10:20:44.241Z,22.80
2019-04-10T10:21:44.887Z,23.80
2019-04-10T10:22:44.061Z,23.20
2019-04-10T10:23:44.673Z,23.50
2019-04-10T10:24:43.880Z,23.00
2019-04-10T10:25:43.795Z,22.60
2019-04-10T10:26:46.051Z,22.90
2019-04-10T10:27:44.676Z,23.10
2019-04-10T10:28:43.529Z,21.90
2019-04-10T10:29:44.111Z,22.30
2019-04-10T10:30:43.968Z,22.90
2019-04-10T10:31:44.378Z,21.40
2019-04-10T10:32:43.803Z,23.00
2019-04-10T10:33:43.092Z,23.00
2019-04-10T10:34:43.001Z,22.60
2019-04-10T10:35:43.194Z,22.00
2019-04-10T10:36:46.146Z,22.50
2019-04-10T10:37:42.905Z,21.90
2019-04-10T10:38:43.386Z,21.40
2019-04-10T10:39:43.072Z,22.20
2019-04-10T10:40:43.599Z,22.10
2019-04-10T10:41:42.643Z,22.80
2019-04-10T10:42:43.462Z,21.90
2019-04-10T10:43:42.618Z,21.60
2019-04-10T10:44:42.476Z,22.90
2019-04-10T10:45:42.937Z,22.00
2019-04-10T10:46:41.969Z,22.30
2019-04-10T10:47:41.863Z,22.30
2019-04-10T10:48:42.057Z,21.60
2019-04-10T10:49:42.359Z,21.70
2019-04-10T10:50:41.655Z,21.20
2019-04-10T10:51:42.545Z,22.10
2019-04-10T10:52:41.713Z,22.10
2019-04-10T10:53:41.351Z,20.90
2019-04-10T10:54:41.254Z,21.40
2019-04-10T10:55:42.058Z,21.70
2019-04-10T10:56:41.097Z,21.80
2019-04-10T10:57:41.568Z,21.70
2019-04-10T10:58:40.905Z,21.30
2019-04-10T10:59:41.790Z,21.30
2019-04-10T11:00:41.130Z,21.50
2019-04-10T11:01:40.662Z,21.30
2019-04-10T11:02:41.504Z,22.00
2019-04-10T11:03:40.563Z,20.70
2019-04-10T11:04:40.387Z,20.80
2019-04-10T11:05:40.403Z,20.20
2019-04-10T11:06:51.497Z,20.80
2019-04-10T11:07:40.533Z,21.00
2019-04-10T11:08:40.033Z,21.40
2019-04-10T11:09:40.218Z,20.90
2019-04-10T11:10:41.084Z,20.60
2019-04-10T11:11:40.932Z,20.20
2019-04-10T11:12:39.989Z,20.00
2019-04-10T11:13:39.602Z,20.20
2019-04-10T11:14:39.632Z,19.20
2019-04-10T11:15:43.671Z,19.30
2019-04-10T11:16:39.352Z,19.80
2019-04-10T11:17:40.404Z,20.10
2019-04-10T11:18:40.316Z,19.10
2019-04-10T11:19:39.453Z,19.40
2019-04-10T11:20:39.406Z,19.40
2019-04-10T11:21:39.053Z,19.80
2019-04-10T11:22:39.733Z,20.40
2019-04-10T11:23:38.872Z,19.60
2019-04-10T11:24:40.759Z,19.40
2019-04-10T11:25:40.141Z,19.40
2019-04-10T11:26:39.923Z,19.00
2019-04-10T11:27:39.311Z,19.10
2019-04-10T11:28:39.301Z,19.40
2019-04-10T11:29:39.014Z,19.20
2019-04-10T11:30:38.346Z,19.10
2019-04-10T11:31:38.544Z,19.10
2019-04-10T11:32:38.289Z,19.20
2019-04-10T11:33:39.714Z,19.10
2019-04-10T11:34:38.205Z,18.80
2019-04-10T11:35:37.686Z,19.20
2019-04-10T11:36:37.614Z,19.90
2019-04-10T11:37:44.585Z,19.50
2019-04-10T11:38:37.503Z,18.90
2019-04-10T11:39:40.424Z,19.40
2019-04-10T11:40:38.822Z,19.00
2019-04-10T11:41:37.432Z,19.40
2019-04-10T11:42:37.282Z,19.80
2019-04-10T11:43:37.663Z,18.80
2019-04-10T11:44:38.932Z,18.50
2019-04-10T11:45:42.603Z,19.20
2019-04-10T11:46:38.684Z,19.30
2019-04-10T11:47:36.760Z,19.10
2019-04-10T11:48:36.687Z,18.80
2019-04-10T11:49:40.035Z,19.30
2019-04-10T11:50:38.442Z,19.40
2019-04-10T11:51:38.736Z,19.40
2019-04-10T11:53:39.874Z,18.60
2019-04-10T11:54:40.980Z,19.20
2019-04-10T11:56:37.845Z,19.20
2019-04-10T11:57:37.326Z,19.20
2019-04-10T11:58:43.860Z,18.80
2019-04-10T11:59:37.967Z,19.20
2019-04-10T12:00:46.420Z,19.10
2019-04-10T12:01:36.823Z,18.30
2019-04-10T12:02:36.937Z,19.00
2019-04-10T12:03:37.052Z,19.00
2019-04-10T12:04:47.453Z,18.40
2019-04-10T12:05:36.673Z,18.20
2019-04-10T12:06:37.659Z,18.90
2019-04-10T12:08:01.337Z,18.20
2019-04-10T12:09:00.374Z,18.60
2019-04-10T12:11:35.160Z,19.00
2019-04-10T12:12:35.459Z,18.60
2019-04-10T12:13:34.531Z,17.90
2019-04-10T12:14:35.221Z,18.60
2019-04-10T12:15:34.442Z,17.90
2019-04-10T12:16:34.122Z,18.20
2019-04-10T12:17:34.052Z,18.90
2019-04-10T12:18:35.030Z,18.40
2019-04-10T12:19:33.861Z,18.00
2019-04-10T12:20:33.776Z,18.60
2019-04-10T12:21:33.767Z,18.90
2019-04-10T12:22:33.817Z,19.40
2019-04-10T12:23:34.651Z,19.50
2019-04-10T12:24:34.191Z,19.40
2019-04-10T12:25:34.627Z,19.60
2019-04-10T12:26:33.901Z,19.40
2019-04-10T12:27:33.526Z,19.00
2019-04-10T12:28:33.920Z,19.00
2019-04-10T12:29:33.077Z,19.00
2019-04-10T12:30:32.905Z,19.50
2019-04-10T12:31:33.241Z,19.70
2019-04-10T12:32:32.747Z,19.60
2019-04-10T12:33:33.687Z,19.30
2019-04-10T12:34:32.557Z,19.40
2019-04-10T12:35:32.470Z,18.00
2019-04-10T12:36:32.383Z,19.10
2019-04-10T12:37:32.832Z,18.20
2019-04-10T12:38:32.206Z,18.40
2019-04-10T12:39:32.255Z,18.60
2019-04-10T12:40:32.928Z,18.90
2019-04-10T12:41:33.143Z,18.40
2019-04-10T12:42:32.339Z,19.30
2019-04-10T12:43:32.665Z,18.20
2019-04-10T12:44:31.735Z,18.30
2019-04-10T12:45:32.616Z,17.70
2019-04-10T12:46:31.502Z,18.10
2019-04-10T12:47:32.208Z,19.10
2019-04-10T12:48:31.548Z,19.30
2019-04-10T12:49:31.692Z,18.90
2019-04-10T12:50:31.149Z,18.30
2019-04-10T12:51:31.978Z,19.40
2019-04-10T12:52:30.991Z,19.50
2019-04-10T12:53:31.743Z,18.90
2019-04-10T12:54:30.794Z,19.70